createdAt,value
2023-04-01T00:01:47.481Z,30.23
2023-04-01T00:04:16.902Z,28.02
2023-04-01T00:06:46.367Z,30.27
2023-04-01T00:09:16.159Z,27.15
2023-04-01T00:11:46.573Z,30.43
2023-04-01T00:14:16.182Z,28.80
2023-04-01T00:16:45.612Z,26.70
2023-04-01T00:19:16.599Z,30.72
2023-04-01T00:21:46.337Z,29.98
2023-04-01T00:24:15.612Z,20.45
2023-04-01T00:26:45.666Z,21.48
2023-04-01T00:29:14.952Z,19.77
2023-04-01T00:31:44.472Z,20.60
2023-04-01T00:34:14.529Z,28.00
2023-04-01T00:36:43.812Z,23.30
2023-04-01T00:39:13.173Z,20.62
2023-04-01T00:41:42.934Z,23.98
2023-04-01T00:44:23.920Z,20.15
2023-04-01T00:46:56.545Z,22.22
2023-04-01T00:51:57.713Z,17.92
2023-04-01T00:54:28.040Z,19.98
2023-04-01T00:57:00.752Z,22.42
2023-04-01T00:59:35.919Z,21.05
2023-04-01T01:02:07.465Z,22.77
2023-04-01T01:04:38.655Z,23.43
2023-04-01T01:07:28.159Z,20.27
2023-04-01T01:10:15.492Z,20.45
2023-04-01T01:12:57.279Z,25.82
2023-04-01T01:15:38.800Z,27.48
2023-04-01T01:18:23.521Z,18.65
2023-04-01T01:21:15.878Z,16.57
2023-04-01T01:23:51.149Z,21.68
2023-04-01T01:26:25.359Z,23.95
2023-04-01T01:29:03.655Z,24.80
2023-04-01T01:31:47.862Z,24.70
2023-04-01T01:34:26.559Z,18.77
2023-04-01T01:37:01.939Z,20.37
2023-04-01T01:39:33.371Z,25.72
2023-04-01T01:42:08.282Z,23.22
2023-04-01T01:44:38.388Z,29.35
2023-04-01T01:47:08.178Z,27.87
2023-04-01T01:49:39.471Z,23.32
2023-04-01T01:52:08.782Z,25.08
2023-04-01T01:54:38.020Z,25.08
2023-04-01T01:57:09.492Z,24.50
2023-04-01T01:59:41.229Z,27.48
2023-04-01T02:02:12.514Z,30.55
2023-04-01T02:04:44.024Z,27.30
2023-04-01T02:07:19.650Z,30.00
2023-04-01T02:09:49.850Z,27.67
2023-04-01T02:12:20.717Z,23.47
2023-04-01T02:15:02.283Z,27.15
2023-04-01T02:17:32.693Z,21.85
2023-04-01T02:20:05.446Z,22.15
2023-04-01T02:22:37.407Z,23.00
2023-04-01T02:25:09.527Z,22.22
2023-04-01T02:27:39.828Z,20.65
2023-04-01T02:30:10.793Z,19.82
2023-04-01T02:32:40.922Z,24.07
2023-04-01T02:35:12.915Z,24.85
2023-04-01T02:37:43.451Z,21.33
2023-04-01T02:40:16.864Z,24.32
2023-04-01T02:42:46.966Z,26.27
2023-04-01T02:45:16.795Z,27.32
2023-04-01T02:47:46.210Z,27.37
2023-04-01T02:50:15.567Z,29.12
2023-04-01T02:52:44.928Z,33.45
2023-04-01T02:55:14.967Z,40.78
2023-04-01T02:57:44.628Z,41.65
2023-04-01T03:00:15.514Z,40.00
2023-04-01T03:02:45.417Z,37.78
2023-04-01T03:05:14.728Z,40.70
2023-04-01T03:07:44.786Z,40.20
2023-04-01T03:10:14.395Z,39.50
2023-04-01T03:12:43.814Z,35.88
2023-04-01T03:15:15.729Z,39.10
2023-04-01T03:17:45.461Z,35.95
2023-04-01T03:20:16.094Z,30.27
2023-04-01T03:22:47.076Z,31.12
2023-04-01T03:25:16.605Z,27.62
2023-04-01T03:27:46.288Z,25.85
2023-04-01T03:30:15.800Z,26.55
2023-04-01T03:32:47.448Z,23.92
2023-04-01T03:35:16.949Z,17.00
2023-04-01T03:37:47.254Z,15.83
2023-04-01T03:40:16.969Z,18.48
2023-04-01T03:42:47.021Z,18.85
2023-04-01T03:45:17.233Z,12.98
2023-04-01T03:47:46.971Z,17.27
2023-04-01T03:50:16.501Z,16.60
2023-04-01T03:52:46.068Z,16.85
2023-04-01T03:55:15.582Z,14.60
2023-04-01T03:57:45.405Z,16.27
2023-04-01T04:00:16.528Z,15.03
2023-04-01T04:02:47.394Z,20.20
2023-04-01T04:05:18.527Z,23.05
2023-04-01T04:07:47.958Z,24.25
2023-04-01T04:10:17.376Z,21.95
2023-04-01T04:12:47.028Z,20.88
2023-04-01T04:15:17.982Z,26.07
2023-04-01T04:17:48.455Z,22.25
2023-04-01T04:20:18.017Z,23.55
2023-04-01T04:22:47.451Z,28.87
2023-04-01T04:25:18.574Z,25.00
2023-04-01T04:27:48.225Z,28.00
2023-04-01T04:30:17.925Z,26.15
2023-04-01T04:32:47.385Z,25.57
2023-04-01T04:35:16.704Z,23.87
2023-04-01T04:37:46.336Z,26.82
2023-04-01T04:40:16.193Z,28.05
2023-04-01T04:42:45.681Z,27.73
2023-04-01T04:45:16.552Z,29.50
2023-04-01T04:47:47.609Z,26.97
2023-04-01T04:50:17.859Z,31.87
2023-04-01T04:52:48.402Z,31.95
2023-04-01T04:55:18.331Z,29.63
2023-04-01T04:57:49.645Z,27.20
2023-04-01T05:00:20.133Z,29.85
2023-04-01T05:02:54.247Z,35.55
2023-04-01T05:05:24.187Z,38.05
2023-04-01T05:07:53.638Z,35.15
2023-04-01T05:10:23.216Z,32.30
2023-04-01T05:12:52.522Z,33.92
2023-04-01T05:15:23.745Z,33.25
2023-04-01T05:17:53.476Z,31.50
2023-04-01T05:20:22.792Z,27.17
2023-04-01T05:22:54.233Z,28.83
2023-04-01T05:25:24.209Z,29.32
2023-04-01T05:27:54.087Z,29.32
2023-04-01T05:30:23.461Z,29.95
2023-04-01T05:32:57.285Z,28.00
2023-04-01T05:35:26.834Z,31.25
2023-04-01T05:37:56.324Z,33.67
2023-04-01T05:40:25.844Z,32.73
2023-04-01T05:42:56.564Z,31.65
2023-04-01T05:45:26.378Z,37.55
2023-04-01T05:48:13.606Z,38.00
2023-04-01T05:50:43.822Z,41.45
2023-04-01T05:53:13.898Z,34.48
2023-04-01T05:55:45.484Z,38.85
2023-04-01T05:58:16.281Z,38.23
2023-04-01T06:00:48.007Z,46.55
2023-04-01T06:03:18.740Z,43.92
2023-04-01T06:05:48.631Z,41.18
2023-04-01T06:08:20.321Z,43.65
2023-04-01T06:11:17.618Z,43.60
2023-04-01T06:13:54.647Z,41.13
2023-04-01T06:16:43.639Z,39.08
2023-04-01T06:19:31.354Z,43.30
2023-04-01T06:22:30.322Z,46.10
2023-04-01T06:25:26.070Z,47.38
2023-04-01T06:28:13.952Z,40.90
2023-04-01T06:31:16.914Z,43.58
2023-04-01T06:34:08.752Z,45.88
2023-04-01T06:36:53.719Z,50.23
2023-04-01T06:39:27.143Z,47.50
2023-04-01T06:42:16.224Z,54.05
2023-04-01T06:44:56.829Z,47.00
2023-04-01T06:48:01.403Z,39.45
2023-04-01T06:50:50.861Z,49.53
2023-04-01T06:53:58.974Z,39.27
2023-04-01T06:56:49.411Z,41.90
2023-04-01T06:59:24.260Z,42.38
2023-04-01T07:01:59.883Z,38.38
2023-04-01T07:04:38.423Z,41.48
2023-04-01T07:07:27.933Z,38.28
2023-04-01T07:10:02.176Z,41.23
2023-04-01T07:12:57.451Z,41.15
2023-04-01T07:15:40.749Z,41.35
2023-04-01T07:18:20.507Z,42.43
2023-04-01T07:20:51.170Z,41.15
2023-04-01T07:23:31.619Z,37.80
2023-04-01T07:26:22.062Z,39.35
2023-04-01T07:29:15.573Z,40.05
2023-04-01T07:32:13.926Z,41.60
2023-04-01T07:34:55.384Z,39.27
2023-04-01T07:37:31.492Z,48.35
2023-04-01T07:40:19.215Z,40.30
2023-04-01T07:42:55.826Z,37.08
2023-04-01T07:45:37.103Z,38.55
2023-04-01T07:48:21.926Z,37.17
2023-04-01T07:51:05.883Z,35.60
2023-04-01T07:53:50.377Z,32.80
2023-04-01T07:56:31.496Z,32.48
2023-04-01T07:59:10.638Z,32.15
2023-04-01T08:02:18.564Z,32.93
2023-04-01T08:04:57.431Z,30.92
2023-04-01T08:07:45.650Z,33.38
2023-04-01T08:10:36.245Z,32.98
2023-04-01T08:13:39.807Z,29.37
2023-04-01T08:16:31.831Z,30.12
2023-04-01T08:19:25.494Z,26.07
2023-04-01T08:21:57.800Z,26.93
2023-04-01T08:24:44.311Z,24.12
2023-04-01T08:27:08.112Z,22.82
2023-04-01T08:29:43.977Z,21.80
2023-04-01T08:32:16.909Z,20.52
2023-04-01T08:34:49.321Z,21.30
2023-04-01T08:37:29.886Z,12.98
2023-04-01T08:40:02.500Z,12.82
2023-04-01T08:45:19.616Z,15.83
2023-04-01T08:48:23.364Z,14.83
2023-04-01T08:51:06.784Z,13.60
2023-04-01T08:54:15.857Z,11.80
2023-04-01T08:56:51.396Z,9.25
2023-04-01T08:59:26.990Z,8.90
2023-04-01T09:02:06.165Z,9.25
2023-04-01T09:04:57.647Z,8.83
2023-04-01T09:07:42.581Z,8.43
2023-04-01T09:10:27.338Z,9.28
2023-04-01T09:13:33.482Z,10.85
2023-04-01T09:16:15.130Z,8.65
2023-04-01T09:18:50.932Z,10.30
2023-04-01T09:21:41.622Z,10.82
2023-04-01T09:24:32.295Z,11.50
2023-04-01T09:27:07.733Z,12.80
2023-04-01T09:29:44.073Z,12.70
2023-04-01T09:32:32.227Z,12.53
2023-04-01T09:35:25.874Z,12.55
2023-04-01T09:38:31.432Z,12.73
2023-04-01T09:41:10.051Z,14.45
2023-04-01T09:43:46.713Z,13.93
2023-04-01T09:46:49.133Z,13.15
2023-04-01T09:49:30.846Z,15.63
2023-04-01T09:52:12.386Z,14.38
2023-04-01T09:55:18.640Z,15.83
2023-04-01T09:58:08.611Z,16.45
2023-04-01T10:01:03.777Z,16.10
2023-04-01T10:04:10.189Z,14.68
2023-04-01T10:06:55.629Z,20.62
2023-04-01T10:09:33.938Z,19.45
2023-04-01T10:12:21.850Z,24.02
2023-04-01T10:15:17.029Z,20.57
2023-04-01T10:17:52.695Z,21.07
2023-04-01T10:20:40.134Z,21.30
2023-04-01T10:23:21.806Z,19.35
2023-04-01T10:26:13.984Z,18.00
2023-04-01T10:29:07.222Z,16.57
2023-04-01T10:32:00.997Z,17.98
2023-04-01T10:34:52.832Z,22.97
2023-04-01T10:37:57.409Z,20.62
2023-04-01T10:40:51.856Z,21.73
2023-04-01T10:43:59.017Z,24.80
2023-04-01T10:46:32.209Z,26.45
2023-04-01T10:49:12.663Z,23.30
2023-04-01T10:52:07.227Z,29.12
2023-04-01T10:55:02.756Z,25.50
2023-04-01T10:58:19.667Z,27.62
2023-04-01T11:01:19.721Z,23.05
2023-04-01T11:04:39.039Z,19.00
2023-04-01T11:10:06.633Z,17.95
2023-04-01T11:13:03.811Z,21.68
2023-04-01T11:15:53.153Z,24.12
2023-04-01T11:18:52.501Z,21.27
2023-04-01T11:21:40.576Z,25.20
2023-04-01T11:24:22.009Z,20.85
2023-04-01T11:27:20.992Z,20.37
2023-04-01T11:30:00.353Z,20.10
2023-04-01T11:32:34.353Z,23.40
2023-04-01T11:35:09.773Z,26.45
2023-04-01T11:37:42.692Z,22.65
2023-04-01T11:40:42.328Z,17.90
2023-04-01T11:43:33.496Z,17.65
2023-04-01T11:46:16.502Z,20.08
2023-04-01T11:49:05.019Z,18.27
2023-04-01T11:51:58.578Z,19.98
2023-04-01T11:54:39.955Z,17.10
2023-04-01T11:57:44.482Z,18.52
2023-04-01T12:00:38.230Z,13.58
2023-04-01T12:03:11.642Z,13.80
2023-04-01T12:05:44.233Z,12.53
2023-04-01T12:11:09.357Z,14.87
2023-04-01T12:13:47.511Z,11.70
2023-04-01T12:16:37.130Z,11.85
2023-04-01T12:19:43.121Z,13.08
2023-04-01T12:22:15.767Z,15.08
2023-04-01T12:27:21.517Z,12.30
2023-04-01T12:30:13.408Z,13.72
2023-04-01T12:32:58.214Z,12.93
2023-04-01T12:35:30.689Z,12.90
2023-04-01T12:38:21.772Z,14.53
2023-04-01T12:41:00.356Z,14.75
2023-04-01T12:43:51.131Z,16.30
2023-04-01T12:46:26.935Z,17.57
2023-04-01T12:49:08.668Z,21.40
2023-04-01T12:51:47.157Z,15.75
2023-04-01T12:54:46.111Z,17.92
2023-04-01T12:57:36.573Z,20.50
2023-04-01T13:00:26.349Z,22.10
2023-04-01T13:03:15.809Z,22.13
2023-04-01T13:05:51.324Z,22.07
2023-04-01T13:08:44.390Z,18.42
2023-04-01T13:14:07.297Z,19.52
2023-04-01T13:16:45.843Z,25.90
2023-04-01T13:19:21.609Z,23.02
2023-04-01T13:22:10.482Z,27.27
2023-04-01T13:25:01.496Z,26.85
2023-04-01T13:27:39.977Z,26.23
2023-04-01T13:30:39.012Z,28.67
2023-04-01T13:33:30.643Z,28.23
2023-04-01T13:36:03.304Z,27.13
2023-04-01T13:38:44.899Z,25.60
2023-04-01T13:41:26.472Z,23.05
2023-04-01T13:44:17.361Z,23.95
2023-04-01T13:47:14.206Z,23.42
2023-04-01T13:50:05.223Z,25.00
2023-04-01T13:53:13.216Z,21.37
2023-04-01T13:56:08.610Z,22.67
2023-04-01T13:58:59.565Z,23.05
2023-04-01T14:01:32.355Z,20.37
2023-04-01T14:04:22.905Z,19.70
2023-04-01T14:07:12.005Z,17.32
2023-04-01T14:10:03.879Z,15.85
2023-04-01T14:12:36.435Z,18.30
2023-04-01T14:15:24.026Z,16.02
2023-04-01T14:18:12.251Z,17.32
2023-04-01T14:21:19.815Z,16.45
2023-04-01T14:24:18.444Z,16.42
2023-04-01T14:27:20.562Z,14.95
2023-04-01T14:30:14.318Z,19.00
2023-04-01T14:32:49.954Z,16.85
2023-04-01T14:35:34.322Z,21.05
2023-04-01T14:38:18.776Z,18.92
2023-04-01T14:41:18.118Z,18.80
2023-04-01T14:44:08.598Z,20.23
2023-04-01T14:46:52.327Z,23.55
2023-04-01T14:49:27.756Z,25.37
2023-04-01T14:51:57.291Z,22.37
2023-04-01T14:54:38.773Z,24.72
2023-04-01T14:57:13.774Z,25.68
2023-04-01T14:59:52.054Z,26.77
2023-04-01T15:02:42.689Z,24.47
2023-04-01T15:05:36.608Z,28.00
2023-04-01T15:08:12.304Z,24.80
2023-04-01T15:10:47.811Z,25.57
2023-04-01T15:13:32.210Z,23.32
2023-04-01T15:16:07.553Z,27.70
2023-04-01T15:18:59.917Z,25.30
2023-04-01T15:21:35.278Z,30.92
2023-04-01T15:24:25.872Z,31.60
2023-04-01T15:27:11.243Z,28.52
2023-04-01T15:30:06.993Z,27.52
2023-04-01T15:32:56.432Z,28.12
2023-04-01T15:35:35.147Z,26.93
2023-04-01T15:38:29.206Z,26.02
2023-04-01T15:41:18.431Z,32.05
2023-04-01T15:43:55.497Z,29.25
2023-04-01T15:46:40.233Z,27.90
2023-04-01T15:49:27.604Z,22.70
2023-04-01T15:52:17.876Z,26.90
2023-04-01T15:55:02.556Z,22.82
2023-04-01T15:58:06.987Z,21.90
2023-04-01T16:01:08.262Z,23.70
2023-04-01T16:03:40.949Z,28.47
2023-04-01T16:06:25.763Z,16.93
2023-04-01T16:09:04.481Z,16.30
2023-04-01T16:11:56.902Z,20.57
2023-04-01T16:14:53.427Z,17.73
2023-04-01T16:17:46.000Z,17.40
2023-04-01T16:20:18.390Z,18.42
2023-04-01T16:23:02.942Z,17.90
2023-04-01T16:25:36.282Z,16.75
2023-04-01T16:28:25.708Z,18.80
2023-04-01T16:31:14.777Z,19.70
2023-04-01T16:33:47.273Z,20.23
2023-04-01T16:36:24.908Z,23.75
2023-04-01T16:39:18.208Z,21.65
2023-04-01T16:42:20.667Z,21.12
2023-04-01T16:44:59.423Z,22.00
2023-04-01T16:47:43.489Z,20.05
2023-04-01T16:50:26.230Z,22.05
2023-04-01T16:53:11.555Z,19.45
2023-04-01T16:55:53.873Z,22.35
2023-04-01T16:58:29.560Z,19.55
2023-04-01T17:01:07.959Z,20.77
2023-04-01T17:03:40.706Z,20.43
2023-04-01T17:06:16.261Z,22.40
2023-04-01T17:08:57.567Z,21.52
2023-04-01T17:11:30.044Z,20.60
2023-04-01T17:14:05.348Z,22.60
2023-04-01T17:16:50.003Z,20.65
2023-04-01T17:19:33.744Z,20.95
2023-04-01T17:22:21.502Z,18.55
2023-04-01T17:24:57.091Z,20.57
2023-04-01T17:27:46.241Z,23.95
2023-04-01T17:30:43.034Z,22.13
2023-04-01T17:33:31.281Z,22.55
2023-04-01T17:36:03.755Z,19.48
2023-04-01T17:38:54.083Z,18.30
2023-04-01T17:41:47.685Z,18.48
2023-04-01T17:44:51.561Z,18.77
2023-04-01T17:47:32.850Z,20.25
2023-04-01T17:50:21.651Z,20.57
2023-04-01T17:53:06.043Z,22.35
2023-04-01T17:56:11.255Z,19.27
2023-04-01T17:58:49.000Z,20.23
2023-04-01T18:01:30.778Z,18.50
2023-04-01T18:04:18.300Z,20.20
2023-04-01T18:07:07.094Z,19.40
2023-04-01T18:09:45.801Z,16.57
2023-04-01T18:12:38.634Z,15.00
2023-04-01T18:15:20.055Z,12.70
2023-04-01T18:17:58.396Z,13.68
2023-04-01T18:20:58.357Z,12.60
2023-04-01T18:23:38.449Z,9.68
2023-04-01T18:26:11.702Z,10.28
2023-04-01T18:28:43.641Z,9.08
2023-04-01T18:31:40.729Z,8.68
2023-04-01T18:34:29.719Z,10.40
2023-04-01T18:37:05.467Z,10.60
2023-04-01T18:39:46.438Z,12.95
2023-04-01T18:42:46.350Z,10.88
2023-04-01T18:45:29.487Z,13.28
2023-04-01T18:48:37.242Z,15.70
2023-04-01T18:51:12.591Z,16.32
2023-04-01T18:53:44.675Z,15.48
2023-04-01T18:56:26.505Z,16.40
2023-04-01T18:59:01.702Z,16.37
2023-04-01T19:01:39.905Z,15.95
2023-04-01T19:04:30.655Z,15.65
2023-04-01T19:07:06.316Z,18.35
2023-04-01T19:09:50.264Z,17.60
2023-04-01T19:12:25.800Z,17.65
2023-04-01T19:15:17.892Z,17.98
2023-04-01T19:17:55.722Z,21.43
2023-04-01T19:20:46.634Z,20.65
2023-04-01T19:23:41.872Z,20.12
2023-04-01T19:26:26.374Z,19.77
2023-04-01T19:29:16.618Z,20.30
2023-04-01T19:32:18.227Z,21.52
2023-04-01T19:34:53.422Z,20.35
2023-04-01T19:37:25.995Z,20.70
2023-04-01T19:42:42.454Z,21.85
2023-04-01T19:45:47.388Z,23.47
2023-04-01T19:48:36.662Z,23.70
2023-04-01T19:51:21.347Z,23.75
2023-04-01T19:54:06.000Z,25.27
2023-04-01T19:56:53.572Z,22.35
2023-04-01T19:59:38.645Z,24.77
2023-04-01T20:02:16.905Z,25.88
2023-04-01T20:04:52.390Z,26.02
2023-04-01T20:07:30.746Z,30.65
2023-04-01T20:10:18.191Z,29.15
2023-04-01T20:12:50.660Z,27.48
2023-04-01T20:15:35.307Z,27.50
2023-04-01T20:18:09.622Z,29.77
2023-04-01T20:20:39.996Z,28.25
2023-04-01T20:23:33.430Z,28.47
2023-04-01T20:26:11.805Z,26.42
2023-04-01T20:28:50.140Z,27.17
2023-04-01T20:31:31.821Z,29.87
2023-04-01T20:34:07.357Z,26.27
2023-04-01T20:36:40.190Z,28.32
2023-04-01T20:39:35.540Z,30.30
2023-04-01T20:42:08.136Z,32.00
2023-04-01T20:44:43.784Z,29.82
2023-04-01T20:47:25.389Z,29.10
2023-04-01T20:50:11.226Z,29.82
2023-04-01T20:52:47.283Z,28.83
2023-04-01T20:55:44.418Z,31.85
2023-04-01T20:58:49.928Z,29.25
2023-04-01T21:01:37.506Z,32.28
2023-04-01T21:04:29.717Z,33.95
2023-04-01T21:07:05.973Z,35.05
2023-04-01T21:09:53.370Z,36.08
2023-04-01T21:12:36.539Z,36.13
2023-04-01T21:15:24.652Z,34.65
2023-04-01T21:18:06.726Z,35.73
2023-04-01T21:20:43.883Z,35.50
2023-04-01T21:23:41.585Z,34.45
2023-04-01T21:26:43.708Z,33.58
2023-04-01T21:29:21.774Z,33.15
2023-04-01T21:32:20.742Z,32.53
2023-04-01T21:35:12.108Z,35.08
2023-04-01T21:38:02.808Z,35.63
2023-04-01T21:40:41.346Z,38.13
2023-04-01T21:43:13.798Z,31.60
2023-04-01T21:46:18.824Z,34.48
2023-04-01T21:49:08.065Z,38.00
2023-04-01T21:52:07.740Z,39.33
2023-04-01T21:54:46.104Z,41.05
2023-04-01T21:57:30.607Z,40.48
2023-04-01T22:00:21.503Z,36.10
2023-04-01T22:03:26.002Z,38.38
2023-04-01T22:05:50.793Z,40.88
2023-04-01T22:08:34.857Z,43.30
2023-04-01T22:11:10.702Z,38.67
2023-04-01T22:13:44.232Z,39.83
2023-04-01T22:16:23.161Z,39.67
2023-04-01T22:19:14.262Z,36.60
2023-04-01T22:21:57.758Z,39.10
2023-04-01T22:24:48.156Z,41.08
2023-04-01T22:27:21.208Z,41.42
2023-04-01T22:30:13.595Z,42.38
2023-04-01T22:32:49.565Z,38.80
2023-04-01T22:35:40.088Z,39.13
2023-04-01T22:38:18.790Z,35.88
2023-04-01T22:41:07.753Z,36.23
2023-04-01T22:43:44.438Z,35.83
2023-04-01T22:46:17.193Z,34.83
2023-04-01T22:48:50.360Z,35.23
2023-04-01T22:51:56.606Z,30.90
2023-04-01T22:54:34.234Z,33.05
2023-04-01T22:57:12.593Z,29.82
2023-04-01T23:00:00.513Z,29.80
2023-04-01T23:02:39.223Z,30.27
2023-04-01T23:05:14.958Z,29.63
2023-04-01T23:08:01.409Z,30.97
2023-04-01T23:10:41.713Z,28.47
2023-04-01T23:13:20.665Z,30.20
2023-04-01T23:15:50.722Z,28.65
2023-04-01T23:18:25.677Z,27.67
2023-04-01T23:20:58.467Z,27.82
2023-04-01T23:24:03.031Z,30.25
2023-04-01T23:26:38.192Z,30.85
2023-04-01T23:29:10.650Z,28.17
2023-04-01T23:31:45.099Z,29.20
2023-04-01T23:34:17.708Z,27.70
2023-04-01T23:39:28.905Z,29.23
2023-04-01T23:42:04.374Z,26.75
2023-04-01T23:44:34.760Z,31.65
2023-04-01T23:47:05.021Z,30.17
2023-04-01T23:49:40.006Z,28.45
2023-04-01T23:52:15.830Z,30.17
2023-04-01T23:54:48.401Z,28.98
2023-04-01T23:57:21.532Z,25.57
